createdAt,value
2018-01-14T00:00:53.293Z,9.68
2018-01-14T00:03:21.174Z,10.75
2018-01-14T00:05:49.140Z,9.98
2018-01-14T00:08:17.039Z,12.00
2018-01-14T00:10:44.971Z,12.48
2018-01-14T00:13:29.821Z,11.82
2018-01-14T00:15:59.116Z,10.77
2018-01-14T00:18:27.092Z,12.05
2018-01-14T00:20:55.163Z,10.82
2018-01-14T00:23:23.060Z,12.73
2018-01-14T00:25:50.995Z,10.55
2018-01-14T00:28:21.158Z,11.32
2018-01-14T00:30:49.165Z,11.70
2018-01-14T00:33:17.096Z,12.52
2018-01-14T00:35:45.090Z,12.63
2018-01-14T00:38:13.761Z,12.85
2018-01-14T00:40:42.473Z,11.45
2018-01-14T00:43:10.360Z,11.55
2018-01-14T00:45:38.387Z,12.60
2018-01-14T00:48:06.380Z,13.10
2018-01-14T00:50:34.329Z,11.95
2018-01-14T00:53:02.215Z,12.90
2018-01-14T00:55:30.963Z,12.50
2018-01-14T00:57:58.955Z,10.90
2018-01-14T01:00:26.904Z,11.60
2018-01-14T01:02:54.817Z,13.10
2018-01-14T01:05:22.756Z,11.93
2018-01-14T01:07:50.652Z,11.98
2018-01-14T01:10:19.414Z,12.60
2018-01-14T01:12:47.368Z,13.10
2018-01-14T01:15:15.315Z,13.50
2018-01-14T01:17:43.232Z,12.07
2018-01-14T01:20:11.188Z,12.57
2018-01-14T01:22:39.115Z,13.60
2018-01-14T01:25:07.046Z,12.75
2018-01-14T01:27:35.046Z,12.10
2018-01-14T01:30:03.011Z,12.68
2018-01-14T01:32:30.915Z,11.98
2018-01-14T01:34:58.882Z,12.13
2018-01-14T01:37:26.797Z,12.25
2018-01-14T01:39:54.759Z,12.68
2018-01-14T01:42:23.435Z,11.70
2018-01-14T01:44:51.400Z,12.60
2018-01-14T01:47:19.514Z,12.00
2018-01-14T01:49:47.468Z,12.98
2018-01-14T01:52:15.479Z,11.77
2018-01-14T01:54:43.414Z,12.20
2018-01-14T01:57:12.211Z,12.40
2018-01-14T01:59:40.110Z,11.60
2018-01-14T02:02:08.073Z,12.32
2018-01-14T02:04:35.964Z,12.23
2018-01-14T02:07:04.753Z,10.95
2018-01-14T02:09:32.629Z,12.00
2018-01-14T02:12:00.584Z,11.90
2018-01-14T02:14:28.464Z,13.40
2018-01-14T02:17:00.203Z,13.77
2018-01-14T02:19:28.084Z,12.30
2018-01-14T02:21:56.028Z,12.93
2018-01-14T02:24:23.957Z,11.55
2018-01-14T02:26:52.671Z,11.10
2018-01-14T02:29:20.597Z,12.98
2018-01-14T02:31:48.545Z,12.40
2018-01-14T02:34:16.436Z,11.65
2018-01-14T02:36:44.396Z,12.63
2018-01-14T02:39:12.324Z,11.73
2018-01-14T02:41:40.292Z,12.65
2018-01-14T02:44:08.206Z,12.65
2018-01-14T02:46:42.448Z,12.52
2018-01-14T02:49:11.154Z,13.65
2018-01-14T02:51:39.100Z,11.82
2018-01-14T02:54:07.010Z,13.00
2018-01-14T02:56:34.955Z,12.37
2018-01-14T02:59:02.884Z,14.60
2018-01-14T03:01:30.853Z,11.02
2018-01-14T03:03:58.773Z,12.60
2018-01-14T03:06:26.763Z,12.52
2018-01-14T03:08:54.688Z,12.90
2018-01-14T03:11:22.658Z,11.80
2018-01-14T03:13:50.553Z,12.00
2018-01-14T03:16:23.379Z,12.25
2018-01-14T03:18:51.273Z,11.95
2018-01-14T03:21:19.209Z,11.85
2018-01-14T03:23:47.105Z,11.38
2018-01-14T03:26:15.081Z,11.27
2018-01-14T03:28:43.014Z,12.10
2018-01-14T03:31:10.979Z,13.95
2018-01-14T03:33:38.887Z,11.55
2018-01-14T03:36:06.871Z,11.00
2018-01-14T03:38:34.776Z,11.55
2018-01-14T03:41:02.722Z,11.38
2018-01-14T03:43:30.600Z,10.40
2018-01-14T03:45:58.544Z,10.57
2018-01-14T03:48:27.228Z,11.15
2018-01-14T03:50:55.196Z,11.45
2018-01-14T03:53:23.090Z,10.75
2018-01-14T03:55:51.047Z,11.10
2018-01-14T03:58:18.963Z,10.45
2018-01-14T04:00:46.938Z,10.32
2018-01-14T04:03:14.818Z,9.85
2018-01-14T04:05:42.759Z,11.15
2018-01-14T04:08:10.686Z,10.68
2018-01-14T04:10:39.380Z,10.45
2018-01-14T04:13:08.053Z,11.88
2018-01-14T04:15:36.026Z,11.10
2018-01-14T04:18:03.944Z,10.68
2018-01-14T04:20:31.896Z,9.27
2018-01-14T04:22:59.795Z,11.07
2018-01-14T04:25:27.732Z,10.63
2018-01-14T04:27:55.628Z,9.80
2018-01-14T04:30:23.581Z,10.18
2018-01-14T04:32:51.527Z,10.75
2018-01-14T04:35:20.192Z,10.02
2018-01-14T04:37:48.610Z,11.65
2018-01-14T04:40:16.762Z,10.38
2018-01-14T04:42:44.721Z,10.48
2018-01-14T04:45:12.624Z,10.13
2018-01-14T04:47:40.557Z,10.93
2018-01-14T04:50:08.437Z,10.98
2018-01-14T04:52:36.394Z,10.65
2018-01-14T04:55:04.498Z,12.07
2018-01-14T04:57:32.416Z,10.15
2018-01-14T05:00:00.324Z,10.57
2018-01-14T05:02:29.062Z,11.98
2018-01-14T05:04:56.962Z,10.45
2018-01-14T05:07:25.096Z,11.12
2018-01-14T05:09:53.018Z,10.27
2018-01-14T05:12:22.219Z,11.93
2018-01-14T05:14:50.114Z,11.25
2018-01-14T05:17:18.064Z,11.80
2018-01-14T05:19:45.973Z,12.43
2018-01-14T05:22:13.933Z,10.00
2018-01-14T05:24:41.835Z,9.68
2018-01-14T05:27:09.792Z,10.20
2018-01-14T05:29:37.785Z,11.48
2018-01-14T05:32:05.742Z,11.50
2018-01-14T05:34:33.628Z,11.60
2018-01-14T05:37:01.635Z,10.75
2018-01-14T05:39:29.529Z,11.85
2018-01-14T05:41:57.448Z,10.68
2018-01-14T05:44:26.116Z,11.00
2018-01-14T05:46:54.102Z,11.30
2018-01-14T05:49:21.995Z,10.80
2018-01-14T05:51:49.962Z,11.60
2018-01-14T05:54:17.857Z,11.93
2018-01-14T05:56:45.815Z,11.27
2018-01-14T05:59:13.690Z,10.68
2018-01-14T06:01:41.649Z,12.35
2018-01-14T06:04:09.560Z,10.73
2018-01-14T06:06:37.606Z,12.25
2018-01-14T06:09:05.562Z,12.10
2018-01-14T06:11:34.408Z,11.57
2018-01-14T06:14:02.310Z,11.23
2018-01-14T06:16:30.264Z,12.88
2018-01-14T06:18:58.176Z,11.20
2018-01-14T06:21:26.128Z,11.70
2018-01-14T06:23:54.027Z,12.07
2018-01-14T06:26:21.960Z,12.15
2018-01-14T06:28:49.836Z,13.57
2018-01-14T06:31:17.777Z,13.30
2018-01-14T06:33:45.686Z,13.23
2018-01-14T06:36:14.482Z,12.00
2018-01-14T06:38:42.375Z,13.07
2018-01-14T06:41:10.326Z,12.35
2018-01-14T06:43:38.216Z,13.27
2018-01-14T06:46:06.172Z,12.35
2018-01-14T06:48:34.065Z,13.02
2018-01-14T06:51:02.037Z,14.18
2018-01-14T06:53:29.992Z,13.15
2018-01-14T06:55:57.904Z,14.68
2018-01-14T06:58:25.837Z,13.32
2018-01-14T07:00:53.775Z,12.48
2018-01-14T07:03:21.717Z,13.68
2018-01-14T07:05:49.624Z,16.48
2018-01-14T07:08:17.577Z,13.43
2018-01-14T07:10:45.480Z,14.57
2018-01-14T07:13:13.419Z,14.00
2018-01-14T07:15:41.341Z,14.50
2018-01-14T07:18:09.280Z,15.00
2018-01-14T07:20:37.172Z,13.70
2018-01-14T07:23:05.122Z,14.15
2018-01-14T07:25:33.006Z,15.50
2018-01-14T07:28:04.630Z,15.18
2018-01-14T07:30:32.531Z,13.10
2018-01-14T07:33:00.637Z,14.48
2018-01-14T07:35:28.528Z,14.07
2018-01-14T07:37:56.448Z,15.00
2018-01-14T07:40:24.345Z,15.05
2018-01-14T07:42:54.761Z,14.38
2018-01-14T07:45:23.710Z,15.23
2018-01-14T07:47:51.649Z,15.90
2018-01-14T07:50:19.566Z,15.32
2018-01-14T07:52:48.864Z,15.90
2018-01-14T07:55:16.768Z,15.50
2018-01-14T07:57:44.728Z,15.00
2018-01-14T08:00:13.413Z,14.48
2018-01-14T08:02:41.351Z,14.45
2018-01-14T08:05:09.301Z,16.10
2018-01-14T08:07:37.251Z,14.95
2018-01-14T08:10:08.376Z,15.38
2018-01-14T08:12:41.389Z,15.65
2018-01-14T08:15:14.350Z,16.08
2018-01-14T08:17:47.003Z,19.55
2018-01-14T08:20:18.916Z,20.58
2018-01-14T08:22:47.072Z,15.65
2018-01-14T08:25:14.963Z,26.02
2018-01-14T08:27:42.916Z,34.85
2018-01-14T08:30:10.833Z,16.27
2018-01-14T08:32:38.785Z,14.35
2018-01-14T08:35:06.699Z,14.95
2018-01-14T08:37:34.679Z,14.73
2018-01-14T08:40:02.565Z,16.23
2018-01-14T08:42:30.506Z,14.10
2018-01-14T08:44:58.403Z,14.48
2018-01-14T08:47:27.544Z,15.20
2018-01-14T08:49:55.445Z,14.27
2018-01-14T08:52:23.444Z,17.05
2018-01-14T08:54:51.383Z,15.13
2018-01-14T08:57:20.083Z,15.50
2018-01-14T08:59:48.728Z,14.98
2018-01-14T09:02:16.656Z,11.88
2018-01-14T09:04:44.546Z,14.13
2018-01-14T09:07:12.497Z,13.80
2018-01-14T09:09:40.413Z,13.55
2018-01-14T09:12:08.394Z,13.43
2018-01-14T09:14:36.276Z,13.90
2018-01-14T09:17:06.263Z,14.43
2018-01-14T09:19:34.228Z,13.07
2018-01-14T09:22:02.175Z,13.70
2018-01-14T09:24:30.083Z,12.50
2018-01-14T09:26:59.207Z,12.35
2018-01-14T09:29:27.325Z,14.18
2018-01-14T09:31:55.385Z,12.57
2018-01-14T09:34:23.334Z,18.77
2018-01-14T09:36:51.285Z,11.90
2018-01-14T09:39:19.972Z,12.23
2018-01-14T09:41:48.639Z,11.45
2018-01-14T09:44:18.263Z,13.50
2018-01-14T09:46:47.586Z,11.80
2018-01-14T09:49:15.563Z,13.20
2018-01-14T09:51:43.470Z,12.20
2018-01-14T09:54:11.396Z,12.18
2018-01-14T09:56:39.431Z,13.10
2018-01-14T09:59:07.394Z,11.82
2018-01-14T10:01:35.311Z,11.07
2018-01-14T10:04:03.277Z,11.10
2018-01-14T10:06:31.191Z,11.68
2018-01-14T10:08:59.096Z,12.52
2018-01-14T10:11:27.817Z,12.55
2018-01-14T10:13:55.697Z,12.75
2018-01-14T10:16:25.719Z,10.88
2018-01-14T10:18:53.660Z,11.40
2018-01-14T10:21:21.609Z,11.68
2018-01-14T10:23:50.280Z,12.52
2018-01-14T10:26:18.205Z,12.27
2018-01-14T10:28:46.624Z,11.98
2018-01-14T10:31:14.930Z,13.68
2018-01-14T10:33:42.928Z,11.25
2018-01-14T10:36:10.812Z,10.10
2018-01-14T10:38:39.504Z,11.73
2018-01-14T10:41:07.374Z,10.57
2018-01-14T10:43:35.325Z,11.70
2018-01-14T10:46:03.210Z,11.07
2018-01-14T10:48:31.174Z,11.07
2018-01-14T10:50:59.071Z,11.40
2018-01-14T10:53:27.051Z,11.48
2018-01-14T10:55:54.932Z,10.55
2018-01-14T10:58:22.873Z,11.63
2018-01-14T11:00:56.243Z,11.93
2018-01-14T11:03:24.174Z,12.35
2018-01-14T11:05:52.053Z,10.45
2018-01-14T11:08:19.987Z,11.55
2018-01-14T11:10:47.915Z,11.38
2018-01-14T11:13:15.869Z,10.02
2018-01-14T11:15:43.808Z,9.95
2018-01-14T11:18:12.547Z,11.80
2018-01-14T11:20:40.444Z,9.50
2018-01-14T11:23:08.390Z,11.20
2018-01-14T11:25:36.310Z,10.52
2018-01-14T11:28:06.301Z,9.52
2018-01-14T11:30:34.190Z,10.75
2018-01-14T11:33:02.715Z,11.10
2018-01-14T11:35:30.635Z,10.63
2018-01-14T11:37:59.750Z,9.85
2018-01-14T11:40:27.742Z,9.77
2018-01-14T11:42:55.678Z,10.82
2018-01-14T11:45:23.736Z,10.55
2018-01-14T11:47:51.731Z,9.60
2018-01-14T11:50:20.392Z,9.70
2018-01-14T11:52:49.402Z,9.60
2018-01-14T11:55:18.052Z,9.77
2018-01-14T11:57:52.629Z,9.70
2018-01-14T12:00:21.308Z,10.80
2018-01-14T12:02:50.040Z,9.52
2018-01-14T12:05:17.959Z,9.85
2018-01-14T12:07:45.933Z,9.70
2018-01-14T12:10:13.833Z,8.68
2018-01-14T12:12:41.796Z,9.20
2018-01-14T12:15:09.695Z,8.82
2018-01-14T12:17:37.646Z,9.65
2018-01-14T12:20:05.605Z,9.93
2018-01-14T12:22:33.585Z,9.23
2018-01-14T12:25:01.920Z,9.40
2018-01-14T12:27:29.807Z,9.43
2018-01-14T12:29:57.964Z,9.25
2018-01-14T12:32:35.566Z,10.68
2018-01-14T12:35:04.274Z,10.23
2018-01-14T12:37:32.161Z,10.05
2018-01-14T12:40:00.892Z,9.18
2018-01-14T12:42:28.802Z,9.17
2018-01-14T12:44:56.745Z,9.52
2018-01-14T12:47:25.433Z,9.95
2018-01-14T12:49:54.154Z,9.27
2018-01-14T12:52:22.066Z,10.47
2018-01-14T12:54:50.020Z,11.37
2018-01-14T12:57:17.942Z,9.60
2018-01-14T12:59:46.653Z,11.20
2018-01-14T13:02:14.559Z,8.93
2018-01-14T13:04:42.558Z,10.87
2018-01-14T13:07:19.484Z,8.50
2018-01-14T13:09:47.420Z,9.95
2018-01-14T13:12:16.093Z,10.13
2018-01-14T13:14:44.219Z,9.25
2018-01-14T13:17:12.978Z,9.98
2018-01-14T13:19:40.924Z,9.20
2018-01-14T13:22:08.870Z,10.05
2018-01-14T13:24:36.835Z,8.88
2018-01-14T13:27:04.764Z,8.57
2018-01-14T13:29:32.713Z,9.27
2018-01-14T13:32:00.636Z,9.02
2018-01-14T13:34:28.580Z,9.57
2018-01-14T13:37:02.805Z,8.25
2018-01-14T13:39:30.744Z,7.43
2018-01-14T13:41:58.626Z,7.87
2018-01-14T13:44:26.557Z,9.70
2018-01-14T13:46:54.515Z,8.95
2018-01-14T13:49:22.528Z,10.00
2018-01-14T13:51:50.409Z,9.07
2018-01-14T13:54:18.358Z,7.75
2018-01-14T13:56:46.260Z,8.50
2018-01-14T13:59:14.195Z,7.87
2018-01-14T14:01:42.075Z,10.05
2018-01-14T14:04:10.008Z,8.48
2018-01-14T14:06:46.128Z,12.05
2018-01-14T14:09:14.073Z,10.13
2018-01-14T14:11:42.013Z,9.32
2018-01-14T14:14:09.959Z,9.95
2018-01-14T14:16:37.904Z,10.10
2018-01-14T14:19:06.026Z,9.20
2018-01-14T14:21:33.951Z,9.20
2018-01-14T14:24:01.883Z,9.85
2018-01-14T14:26:29.854Z,9.13
2018-01-14T14:28:58.567Z,9.32
2018-01-14T14:31:30.868Z,10.30
2018-01-14T14:34:02.169Z,9.23
2018-01-14T14:36:33.324Z,10.20
2018-01-14T14:39:01.325Z,9.73
2018-01-14T14:41:29.217Z,9.70
2018-01-14T14:43:57.305Z,10.40
2018-01-14T14:46:25.202Z,8.18
2018-01-14T14:48:53.129Z,9.25
2018-01-14T14:51:21.019Z,9.52
2018-01-14T14:53:49.763Z,8.32
2018-01-14T14:56:17.715Z,8.98
2018-01-14T14:58:45.675Z,8.25
2018-01-14T15:01:13.578Z,8.88
2018-01-14T15:03:41.534Z,9.88
2018-01-14T15:06:09.431Z,8.73
2018-01-14T15:08:37.385Z,9.07
2018-01-14T15:11:05.323Z,8.00
2018-01-14T15:13:33.234Z,9.60
2018-01-14T15:16:01.201Z,8.93
2018-01-14T15:18:29.091Z,10.02
2018-01-14T15:20:57.027Z,10.02
2018-01-14T15:23:24.936Z,10.05
2018-01-14T15:25:52.874Z,9.95
2018-01-14T15:28:20.766Z,10.70
2018-01-14T15:30:48.720Z,10.48
2018-01-14T15:33:18.421Z,10.15
2018-01-14T15:35:50.128Z,10.25
2018-01-14T15:38:23.428Z,9.55
2018-01-14T15:40:51.549Z,9.30
2018-01-14T15:43:19.434Z,10.02
2018-01-14T15:45:47.590Z,10.40
2018-01-14T15:48:15.615Z,10.00
2018-01-14T15:50:43.551Z,9.85
2018-01-14T15:53:11.473Z,11.27
2018-01-14T15:55:39.415Z,10.32
2018-01-14T15:58:07.309Z,11.20
2018-01-14T16:00:35.264Z,11.73
2018-01-14T16:03:03.156Z,10.38
2018-01-14T16:05:31.153Z,10.88
2018-01-14T16:07:59.052Z,11.18
2018-01-14T16:10:27.720Z,11.45
2018-01-14T16:12:55.670Z,10.75
2018-01-14T16:15:23.658Z,10.50
2018-01-14T16:17:51.843Z,10.63
2018-01-14T16:20:19.811Z,11.12
2018-01-14T16:22:47.761Z,10.20
2018-01-14T16:25:15.749Z,11.45
2018-01-14T16:27:43.694Z,15.60
2018-01-14T16:30:11.633Z,14.90
2018-01-14T16:32:39.545Z,13.07
2018-01-14T16:35:07.518Z,12.88
2018-01-14T16:37:35.418Z,12.23
2018-01-14T16:40:04.609Z,11.48
2018-01-14T16:42:32.548Z,11.02
2018-01-14T16:45:00.598Z,13.43
2018-01-14T16:47:30.608Z,13.30
2018-01-14T16:49:58.554Z,14.00
2018-01-14T16:52:26.471Z,12.10
2018-01-14T16:54:54.496Z,14.35
2018-01-14T16:57:22.410Z,14.85
2018-01-14T16:59:50.378Z,15.75
2018-01-14T17:02:18.333Z,14.85
2018-01-14T17:04:46.296Z,13.52
2018-01-14T17:07:14.261Z,12.55
2018-01-14T17:09:42.302Z,13.50
2018-01-14T17:12:10.994Z,13.93
2018-01-14T17:14:39.720Z,12.30
2018-01-14T17:17:07.769Z,12.25
2018-01-14T17:19:36.149Z,11.98
2018-01-14T17:22:04.061Z,12.18
2018-01-14T17:24:32.013Z,12.32
2018-01-14T17:26:59.911Z,11.70
2018-01-14T17:29:28.243Z,13.18
2018-01-14T17:31:56.712Z,11.93
2018-01-14T17:34:24.975Z,13.07
2018-01-14T17:36:53.482Z,13.13
2018-01-14T17:39:22.545Z,11.80
2018-01-14T17:41:51.237Z,15.98
2018-01-14T17:44:19.196Z,15.60
2018-01-14T17:46:48.298Z,14.32
2018-01-14T17:49:16.244Z,14.43
2018-01-14T17:51:44.162Z,14.93
2018-01-14T17:54:12.062Z,14.02
2018-01-14T17:56:40.045Z,13.40
2018-01-14T17:59:07.968Z,14.00
2018-01-14T18:01:35.949Z,13.32
2018-01-14T18:04:03.929Z,14.05
2018-01-14T18:06:31.945Z,14.35
2018-01-14T18:08:59.888Z,13.60
2018-01-14T18:11:27.876Z,13.40
2018-01-14T18:13:55.791Z,14.15
2018-01-14T18:16:23.995Z,14.45
2018-01-14T18:18:51.923Z,13.32
2018-01-14T18:21:19.857Z,12.20
2018-01-14T18:23:47.766Z,12.07
2018-01-14T18:26:15.754Z,13.25
2018-01-14T18:28:43.678Z,14.32
2018-01-14T18:31:11.636Z,13.32
2018-01-14T18:33:39.544Z,12.70
2018-01-14T18:36:08.336Z,13.40
2018-01-14T18:38:36.229Z,12.95
2018-01-14T18:41:04.942Z,12.15
2018-01-14T18:43:32.853Z,12.70
2018-01-14T18:46:13.723Z,13.05
2018-01-14T18:48:42.397Z,14.15
2018-01-14T18:51:10.344Z,12.02
2018-01-14T18:53:38.249Z,13.98
2018-01-14T18:56:07.012Z,12.18
2018-01-14T18:58:35.039Z,11.68
2018-01-14T19:01:03.004Z,12.95
2018-01-14T19:03:30.902Z,12.73
2018-01-14T19:05:58.861Z,12.40
2018-01-14T19:08:26.785Z,12.70
2018-01-14T19:10:55.556Z,13.50
2018-01-14T19:13:23.440Z,11.45
2018-01-14T19:15:51.386Z,13.93
2018-01-14T19:18:19.297Z,12.30
2018-01-14T19:20:47.273Z,12.10
2018-01-14T19:23:15.150Z,12.77
2018-01-14T19:25:43.113Z,14.13
2018-01-14T19:28:11.260Z,15.10
2018-01-14T19:30:39.412Z,12.63
2018-01-14T19:33:07.320Z,13.80
2018-01-14T19:35:35.231Z,14.07
2018-01-14T19:38:04.020Z,15.73
2018-01-14T19:40:31.964Z,15.00
2018-01-14T19:42:59.933Z,16.08
2018-01-14T19:45:27.870Z,13.62
2018-01-14T19:47:57.743Z,13.30
2018-01-14T19:50:25.705Z,14.63
2018-01-14T19:52:53.666Z,13.07
2018-01-14T19:55:21.567Z,13.55
2018-01-14T19:57:49.705Z,14.80
2018-01-14T20:00:17.681Z,13.73
2018-01-14T20:02:45.609Z,13.50
2018-01-14T20:05:13.563Z,13.62
2018-01-14T20:07:41.462Z,13.70
2018-01-14T20:10:09.419Z,12.70
2018-01-14T20:12:38.145Z,14.85
2018-01-14T20:15:06.144Z,14.15
2018-01-14T20:17:34.061Z,13.52
2018-01-14T20:20:02.102Z,13.35
2018-01-14T20:22:30.027Z,14.65
2018-01-14T20:24:57.946Z,13.35
2018-01-14T20:27:25.958Z,12.98
2018-01-14T20:29:53.871Z,13.23
2018-01-14T20:32:21.814Z,13.27
2018-01-14T20:34:49.778Z,13.98
2018-01-14T20:37:17.796Z,12.60
2018-01-14T20:39:46.148Z,15.18
2018-01-14T20:42:14.328Z,12.27
2018-01-14T20:44:47.918Z,13.20
2018-01-14T20:47:15.878Z,13.00
2018-01-14T20:49:43.861Z,13.60
2018-01-14T20:52:11.779Z,14.07
2018-01-14T20:54:39.747Z,13.13
2018-01-14T20:57:07.647Z,14.95
2018-01-14T20:59:36.422Z,13.90
2018-01-14T21:02:04.351Z,12.00
2018-01-14T21:04:32.332Z,15.13
2018-01-14T21:07:00.236Z,14.25
2018-01-14T21:09:28.131Z,13.77
2018-01-14T21:11:56.094Z,13.32
2018-01-14T21:14:23.992Z,15.23
2018-01-14T21:16:52.061Z,13.43
2018-01-14T21:19:19.961Z,13.20
2018-01-14T21:21:47.961Z,14.27
2018-01-14T21:24:15.932Z,13.77
2018-01-14T21:26:43.824Z,13.43
2018-01-14T21:29:11.770Z,12.60
2018-01-14T21:31:39.661Z,13.40
2018-01-14T21:34:07.619Z,15.23
2018-01-14T21:36:37.692Z,13.23
2018-01-14T21:39:05.709Z,12.93
2018-01-14T21:41:33.648Z,13.23
2018-01-14T21:44:02.317Z,13.62
2018-01-14T21:46:30.269Z,12.98
2018-01-14T21:48:58.170Z,12.45
2018-01-14T21:51:26.891Z,14.30
2018-01-14T21:53:54.813Z,13.25
2018-01-14T21:56:26.719Z,13.57
2018-01-14T21:58:54.856Z,12.05
2018-01-14T22:01:22.800Z,14.38
2018-01-14T22:03:50.712Z,14.52
2018-01-14T22:06:18.666Z,13.07
2018-01-14T22:08:49.261Z,13.95
2018-01-14T22:11:17.169Z,12.70
2018-01-14T22:13:45.106Z,13.52
2018-01-14T22:16:13.030Z,13.80
2018-01-14T22:18:41.010Z,13.45
2018-01-14T22:21:08.911Z,13.23
2018-01-14T22:23:36.863Z,14.60
2018-01-14T22:26:04.822Z,13.27
2018-01-14T22:28:32.822Z,14.98
2018-01-14T22:31:00.703Z,14.18
2018-01-14T22:33:28.648Z,13.48
2018-01-14T22:35:56.562Z,13.40
2018-01-14T22:38:24.518Z,13.90
2018-01-14T22:40:52.413Z,13.68
2018-01-14T22:43:20.407Z,14.93
2018-01-14T22:45:48.327Z,13.65
2018-01-14T22:48:17.112Z,14.32
2018-01-14T22:50:45.087Z,12.50
2018-01-14T22:53:12.994Z,14.52
2018-01-14T22:55:40.937Z,13.38
2018-01-14T22:58:09.610Z,13.75
2018-01-14T23:00:37.628Z,14.05
2018-01-14T23:03:05.518Z,13.48
2018-01-14T23:05:33.481Z,13.68
2018-01-14T23:08:01.373Z,13.40
2018-01-14T23:10:29.325Z,11.00
2018-01-14T23:12:57.246Z,12.50
2018-01-14T23:15:25.972Z,12.93
2018-01-14T23:17:54.915Z,13.65
2018-01-14T23:20:22.857Z,13.38
2018-01-14T23:22:50.808Z,13.62
2018-01-14T23:25:18.741Z,15.05
2018-01-14T23:27:46.728Z,13.40
2018-01-14T23:30:14.614Z,13.82
2018-01-14T23:32:43.327Z,13.80
2018-01-14T23:35:11.305Z,14.80
2018-01-14T23:37:39.248Z,14.38
2018-01-14T23:40:07.139Z,12.95
2018-01-14T23:42:35.070Z,13.50
2018-01-14T23:45:02.977Z,13.88
2018-01-14T23:47:34.907Z,13.10
2018-01-14T23:50:02.971Z,13.38
2018-01-14T23:52:30.948Z,12.75
2018-01-14T23:54:59.608Z,13.85
2018-01-14T23:57:27.603Z,13.43
2018-01-14T23:59:55.506Z,13.95
